This is the latest recevied weather packets stored in our database for station/object K1BES. If no packets are shown the sender has not sent any weather packets the latest 10 day(s).
| Time | Temp. | Humidity | Pressure | Rain* | Wind** | Luminosity | Snow |
|---|---|---|---|---|---|---|---|
| 1777929565 | 30° C | 56% | 1014.8 hPa | 0 mm | - | 196 W/m² | - |
| 1777929261 | 30.56° C | 47% | 1014.9 hPa | 0 mm | - | 157 W/m² | - |
| 1777928958 | 30.56° C | 44% | 1014.9 hPa | 0 mm | - | 293 W/m² | - |
| 1777928655 | 30.56° C | 44% | 1015.1 hPa | 0 mm | - | 306 W/m² | - |
| 1777928352 | 30° C | 44% | 1015.1 hPa | 0 mm | - | 564 W/m² | - |
| 1777928050 | 30° C | 45% | 1015.1 hPa | 0 mm | - | 259 W/m² | - |
| 1777927748 | 30° C | 45% | 1015 hPa | 0 mm | - | 200 W/m² | - |
| 1777927446 | 30° C | 46% | 1015.1 hPa | 0 mm | - | 228 W/m² | - |
| 1777927145 | 30° C | 45% | 1015.1 hPa | 0 mm | - | 187 W/m² | - |
| 1777926841 | 30.56° C | 43% | 1015.2 hPa | 0 mm | - | 166 W/m² | - |
| 1777926537 | 30.56° C | 45% | 1015.1 hPa | 0 mm | - | 237 W/m² | - |
| 1777926235 | 30° C | 46% | 1015 hPa | 0 mm | - | 203 W/m² | - |
| 1777925931 | 29.44° C | 47% | 1015.2 hPa | 0 mm | - | 212 W/m² | - |
| 1777925629 | 30° C | 47% | 1015.3 hPa | 0 mm | - | 157 W/m² | - |
| 1777925326 | 30° C | 45% | 1015.3 hPa | 0 mm | - | 109 W/m² | - |
| 1777925022 | 31.11° C | 44% | 1015.3 hPa | 0 mm | - | 172 W/m² | - |
| 1777924719 | 31.67° C | 42% | 1015.3 hPa | 0 mm | - | 213 W/m² | - |
| 1777924414 | 30.56° C | 46% | 1015.3 hPa | 0 mm | - | 883 W/m² | - |
| 1777924112 | 30.56° C | 44% | 1015.5 hPa | 0 mm | - | 406 W/m² | - |
| 1777923807 | 31.11° C | 44% | 1015.5 hPa | 0 mm | - | 210 W/m² | - |
| 1777923503 | 31.11° C | 42% | 1015.7 hPa | 0 mm | - | 243 W/m² | - |
| 1777923201 | 30.56° C | 44% | 1015.6 hPa | 0 mm | - | 965 W/m² | - |
| 1777922900 | 31.11° C | 42% | 1015.6 hPa | 0 mm | - | 289 W/m² | - |
| 1777922597 | 30.56° C | 44% | 1015.5 hPa | 0 mm | - | 1025 W/m² | - |
| 1777922296 | 30.56° C | 44% | 1015.7 hPa | 0 mm | - | 765 W/m² | - |
* Rain latest hour (hover to see other rain measurements)
** Current wind speed in m/s (hover to see current wind gust speed)